Time;durP1;ratioP1;P1;durP2;ratioP2;P2;SDS_P1;SDS_P2;PMS_P1;PMS_P2;Temp;Humidity;BMP_temperature;BMP_pressure;BME280_temperature;BME280_humidity;BME280_pressure;Samples;Min_cycle;Max_cycle;Signal;HPM_P1;HPM_P2
2022/06/08 00:00:12;;;;;;;7.15;4.70;;;;;;;21.76;54.09;101147.47;5077183;28;20118;-56
2022/06/08 00:02:42;;;;;;;7.50;4.95;;;;;;;21.75;54.41;101140.38;5077698;28;20163;-57
2022/06/08 00:05:09;;;;;;;6.78;4.47;;;;;;;21.75;54.64;101131.41;5074092;28;20535;-58
2022/06/08 00:07:36;;;;;;;5.50;4.15;;;;;;;21.75;54.35;101145.78;5077319;28;20048;-57
2022/06/08 00:10:04;;;;;;;8.27;4.78;;;;;;;21.74;54.55;101135.13;5075833;28;20140;-57
2022/06/08 00:12:30;;;;;;;7.05;4.20;;;;;;;21.74;54.27;101127.03;5079385;28;20036;-56
2022/06/08 00:14:57;;;;;;;5.25;4.18;;;;;;;21.72;54.32;101124.53;5082227;28;20884;-57
2022/06/08 00:17:24;;;;;;;8.35;5.05;;;;;;;21.73;54.63;101130.75;5075882;28;20102;-57
2022/06/08 00:19:50;;;;;;;6.53;4.30;;;;;;;21.72;54.56;101126.38;5081145;28;20040;-57
2022/06/08 00:22:17;;;;;;;5.05;3.97;;;;;;;21.72;54.44;101129.09;5082020;28;20036;-56
2022/06/08 00:24:44;;;;;;;6.00;4.50;;;;;;;21.71;54.64;101122.84;5074845;28;20116;-57
2022/06/08 00:27:12;;;;;;;7.78;4.75;;;;;;;21.71;54.45;101122.84;5078394;28;20043;-57
2022/06/08 00:29:38;;;;;;;6.07;4.35;;;;;;;21.71;54.41;101119.28;5082202;28;20086;-57
2022/06/08 00:32:05;;;;;;;8.02;4.53;;;;;;;21.71;54.34;101116.59;5081295;28;20058;-57
2022/06/08 00:34:31;;;;;;;6.55;4.35;;;;;;;21.70;54.39;101118.44;5083840;28;20341;-57
2022/06/08 00:36:58;;;;;;;6.43;4.47;;;;;;;21.70;54.71;101110.34;5084838;28;20041;-57
2022/06/08 00:39:24;;;;;;;6.28;4.35;;;;;;;21.69;54.52;101111.38;5079495;28;20123;-57
2022/06/08 00:42:01;;;;;;;5.70;3.92;;;;;;;21.69;54.44;101109.50;5080713;28;20036;-57
2022/06/08 00:44:33;;;;;;;6.63;4.00;;;;;;;21.68;54.75;101110.53;5078503;28;20055;-57
2022/06/08 00:47:01;;;;;;;7.53;3.75;;;;;;;21.68;54.52;101102.44;5080212;28;20280;-57
2022/06/08 00:49:45;;;;;;;9.05;3.88;;;;;;;21.67;54.72;101089.97;5078695;28;20036;-57
2022/06/08 00:52:14;;;;;;;6.10;4.18;;;;;;;21.68;54.38;101090.81;5083102;28;20036;-57
2022/06/08 00:54:47;;;;;;;6.43;4.47;;;;;;;21.67;54.40;101087.28;5078273;28;20054;-57
2022/06/08 00:57:20;;;;;;;6.35;4.22;;;;;;;21.66;54.65;101082.88;5086648;28;20039;-57
2022/06/08 00:59:54;;;;;;;6.05;3.95;;;;;;;21.65;54.58;101075.81;5082112;28;20142;-56
2022/06/08 01:02:21;;;;;;;6.05;3.72;;;;;;;21.65;54.69;101078.50;5084949;28;20040;-58
2022/06/08 01:04:48;;;;;;;7.13;4.43;;;;;;;21.65;54.89;101077.66;5084616;28;20064;-57
2022/06/08 01:07:20;;;;;;;5.00;3.47;;;;;;;21.63;54.47;101067.06;5081235;28;20049;-57
2022/06/08 01:09:48;;;;;;;9.93;4.40;;;;;;;21.63;54.65;101064.34;5078995;28;20157;-57
2022/06/08 01:12:18;;;;;;;5.13;4.22;;;;;;;21.64;54.78;101067.91;5080778;28;20041;-57
2022/06/08 01:14:47;;;;;;;8.20;3.85;;;;;;;21.63;54.50;101060.81;5081134;28;20055;-57
2022/06/08 01:17:16;;;;;;;5.53;3.67;;;;;;;21.63;54.75;101067.06;5082185;28;20055;-57
2022/06/08 01:19:46;;;;;;;6.65;3.95;;;;;;;21.63;54.88;101053.56;5081030;28;20179;-56
2022/06/08 01:22:19;;;;;;;5.43;3.50;;;;;;;21.63;54.81;101055.44;5082724;28;20050;-57
2022/06/08 01:24:49;;;;;;;5.40;3.30;;;;;;;21.62;54.90;101038.38;5079046;28;20036;-57
2022/06/08 01:27:31;;;;;;;4.22;3.40;;;;;;;21.62;54.98;101041.06;5087196;28;20048;-56
2022/06/08 01:30:34;;;;;;;6.20;3.65;;;;;;;21.60;54.77;101037.72;5084807;28;20090;-56
2022/06/08 01:33:36;;;;;;;4.57;3.38;;;;;;;21.60;55.09;101035.03;5082692;28;20535;-57
2022/06/08 01:36:31;;;;;;;5.57;3.28;;;;;;;21.60;55.10;101036.88;5081599;28;20046;-56
2022/06/08 01:39:03;;;;;;;;;;;;;;;21.61;54.65;101025.06;5083365;28;20043;-56
2022/06/08 01:41:58;;;;;;;6.43;3.72;;;;;;;21.61;54.82;101014.28;5081509;28;19928;-56
2022/06/08 01:44:34;;;;;;;;;;;;;;;21.60;54.93;101015.31;5079566;28;20049;-57
2022/06/08 01:47:49;;;;;;;4.00;2.88;;;;;;;21.61;54.84;101020.50;5081050;28;20011;-57
2022/06/08 01:50:56;;;;;;;4.47;3.35;;;;;;;21.61;54.84;101016.97;5078160;28;20052;-56
2022/06/08 01:54:00;;;;;;;5.45;3.67;;;;;;;21.57;54.67;101011.09;5080266;28;20076;-56
2022/06/08 01:56:37;;;;;;;6.47;3.53;;;;;;;;;;5081000;28;20045;-56
2022/06/08 01:59:21;;;;;;;4.75;3.72;;;;;;;21.54;54.64;100997.09;5087378;28;20135;-56
2022/06/08 02:02:26;;;;;;;5.20;3.65;;;;;;;21.52;55.12;100993.75;5083471;28;20285;-57
2022/06/08 02:05:21;;;;;;;5.35;3.67;;;;;;;21.52;54.88;100999.16;5078357;28;20489;-57
2022/06/08 02:08:09;;;;;;;6.05;4.00;;;;;;;21.51;55.21;100986.66;5080487;28;20070;-56
2022/06/08 02:11:11;;;;;;;6.10;4.05;;;;;;;21.50;55.07;100979.59;5083801;28;20044;-56
2022/06/08 02:13:44;;;;;;;5.45;3.78;;;;;;;21.50;55.23;100977.72;5083543;28;20423;-57
2022/06/08 02:16:37;;;;;;;5.65;3.97;;;;;;;21.49;55.19;100972.50;5086710;28;20055;-56
2022/06/08 02:19:09;;;;;;;4.90;3.55;;;;;;;21.48;55.17;100971.69;5081178;28;20052;-56
2022/06/08 02:21:43;;;;;;;4.85;3.50;;;;;;;21.48;55.19;100966.28;5081726;28;20049;-56
2022/06/08 02:24:15;;;;;;;6.47;4.40;;;;;;;21.46;55.20;100962.91;5080771;28;20036;-57
2022/06/08 02:26:47;;;;;;;6.18;3.70;;;;;;;21.48;55.02;100965.44;5081690;28;20338;-57
2022/06/08 02:29:19;;;;;;;4.80;3.50;;;;;;;21.47;55.20;100955.66;5081402;28;20048;-57
2022/06/08 02:31:56;;;;;;;4.90;3.80;;;;;;;21.44;55.30;100949.59;5081501;28;20036;-57
2022/06/08 02:34:31;;;;;;;6.15;3.85;;;;;;;21.44;55.30;100959.56;5080769;28;20052;-57
2022/06/08 02:37:06;;;;;;;5.20;4.25;;;;;;;21.43;55.22;100949.78;5080163;28;20089;-56
2022/06/08 02:39:55;;;;;;;4.53;3.67;;;;;;;21.43;55.34;100952.50;5082541;28;20044;-57
2022/06/08 02:42:30;;;;;;;5.05;3.47;;;;;;;21.43;55.34;100955.19;5083934;28;20050;-57
2022/06/08 02:45:04;;;;;;;5.43;3.75;;;;;;;21.41;55.12;100947.25;5083385;28;20056;-57
2022/06/08 02:47:34;;;;;;;4.82;3.17;;;;;;;21.42;55.29;100946.22;5079543;28;20398;-56
2022/06/08 02:50:06;;;;;;;5.40;3.50;;;;;;;21.41;55.57;100941.00;5083623;28;20143;-57
2022/06/08 02:52:33;;;;;;;6.13;3.53;;;;;;;21.40;55.40;100932.09;5076318;28;20451;-57
2022/06/08 02:54:59;;;;;;;4.45;3.63;;;;;;;21.39;55.09;100933.13;5079474;28;20044;-56
2022/06/08 02:57:40;;;;;;;5.47;3.75;;;;;;;21.39;55.11;100930.41;5081951;28;20042;-56
2022/06/08 03:00:35;;;;;;;5.53;3.67;;;;;;;21.39;55.44;100924.19;5080484;28;20089;-57
2022/06/08 03:03:14;;;;;;;5.07;3.72;;;;;;;21.38;55.18;100920.63;5079141;28;20999;-57
2022/06/08 03:05:44;;;;;;;5.93;3.60;;;;;;;21.38;55.23;100925.19;5078298;28;20412;-57
2022/06/08 03:08:22;;;;;;;6.32;3.90;;;;;;;21.37;55.31;100920.81;5077538;28;21000;-56
2022/06/08 03:10:51;;;;;;;6.22;4.28;;;;;;;21.37;55.22;100926.19;5075458;28;20134;-56
2022/06/08 03:13:28;;;;;;;5.47;3.97;;;;;;;21.37;55.23;100920.81;5078488;28;20043;-56
2022/06/08 03:15:58;;;;;;;4.25;3.30;;;;;;;21.36;55.07;100924.53;5078606;28;20054;-56
2022/06/08 03:18:25;;;;;;;5.93;3.35;;;;;;;21.36;55.48;100919.97;5081260;28;20115;-56
2022/06/08 03:20:52;;;;;;;4.70;3.45;;;;;;;21.35;55.15;100921.00;5079065;28;20442;-57
2022/06/08 03:23:20;;;;;;;5.35;3.65;;;;;;;21.35;55.20;100918.31;5076454;28;20434;-57
2022/06/08 03:25:46;;;;;;;5.07;3.97;;;;;;;21.35;55.55;100912.06;5083235;28;20041;-56
2022/06/08 03:28:14;;;;;;;4.60;3.55;;;;;;;21.35;55.27;100920.16;5081223;28;20083;-57
2022/06/08 03:30:43;;;;;;;5.03;3.53;;;;;;;21.35;55.43;100914.75;5084326;28;20092;-56
2022/06/08 03:33:10;;;;;;;6.25;4.05;;;;;;;21.34;55.24;100907.66;5080813;28;20071;-57
2022/06/08 03:35:38;;;;;;;5.43;3.75;;;;;;;21.33;55.21;100909.53;5079886;28;20048;-56
2022/06/08 03:38:05;;;;;;;5.13;4.15;;;;;;;21.33;55.53;100908.69;5080538;28;20052;-56
2022/06/08 03:40:33;;;;;;;5.63;3.67;;;;;;;21.33;54.98;100908.69;5080155;28;20404;-56
2022/06/08 03:42:59;;;;;;;4.47;3.50;;;;;;;21.32;55.28;100910.56;5080332;28;20043;-57
2022/06/08 03:45:34;;;;;;;4.93;3.70;;;;;;;21.31;55.24;100899.91;5080510;28;20446;-56
2022/06/08 03:48:00;;;;;;;3.88;3.42;;;;;;;21.32;55.43;100912.38;5079435;28;20068;-57
2022/06/08 03:50:29;;;;;;;6.15;3.38;;;;;;;21.32;55.26;100912.38;5080745;28;20044;-57
2022/06/08 03:53:01;;;;;;;5.20;3.35;;;;;;;21.32;55.14;100912.38;5081062;28;20045;-56
2022/06/08 03:55:31;;;;;;;6.00;3.88;;;;;;;21.32;55.59;100920.47;5080948;28;20373;-57
2022/06/08 03:57:59;;;;;;;4.78;3.60;;;;;;;21.31;55.14;100916.09;5085406;28;20040;-57
2022/06/08 04:00:26;;;;;;;5.18;3.13;;;;;;;21.32;55.40;100906.97;5085084;28;20147;-57
2022/06/08 04:02:53;;;;;;;8.35;3.70;;;;;;;21.33;55.16;100914.09;5078131;28;20038;-56
2022/06/08 04:05:26;;;;;;;4.78;3.28;;;;;;;21.34;55.63;100921.16;5080582;28;20373;-56
2022/06/08 04:07:53;;;;;;;7.63;4.13;;;;;;;21.32;55.36;100921.34;5076110;28;20070;-57
2022/06/08 04:10:19;;;;;;;7.03;3.85;;;;;;;21.34;55.53;100918.44;5076151;28;20054;-56
2022/06/08 04:12:46;;;;;;;6.40;3.40;;;;;;;21.34;55.36;100921.97;5076898;28;20453;-57
2022/06/08 04:15:41;;;;;;;5.75;3.45;;;;;;;21.34;55.18;100915.75;5078623;28;20166;-57
2022/06/08 04:17:59;;;;;;;6.43;3.55;;;;;;;21.34;55.42;100919.28;5073979;28;20402;-56
2022/06/08 04:20:26;;;;;;;7.55;3.88;;;;;;;21.34;55.42;100924.69;5076261;28;20702;-56
2022/06/08 04:22:53;;;;;;;7.68;3.88;;;;;;;21.35;55.32;100914.75;5081796;28;20054;-57
2022/06/08 04:25:19;;;;;;;6.68;4.13;;;;;;;21.35;55.16;100903.97;5075750;28;20334;-57
2022/06/08 04:27:46;;;;;;;9.60;4.35;;;;;;;21.34;54.95;100900.41;5077736;28;20036;-57
2022/06/08 04:30:13;;;;;;;5.45;4.05;;;;;;;21.36;54.79;100902.97;5078357;28;20053;-57
2022/06/08 04:32:40;;;;;;;6.03;4.25;;;;;;;21.36;55.14;100894.88;5075868;28;20044;-56
2022/06/08 04:35:07;;;;;;;6.72;4.50;;;;;;;21.35;55.28;100895.88;5078474;28;20049;-57
2022/06/08 04:37:37;;;;;;;10.15;4.70;;;;;;;21.35;54.99;100887.81;5078759;28;20084;-56
2022/06/08 04:40:09;;;;;;;7.80;4.35;;;;;;;21.34;54.80;100888.78;5078603;28;20136;-56
2022/06/08 04:42:36;;;;;;;10.93;4.63;;;;;;;21.36;55.05;100892.16;5075551;28;20106;-56
2022/06/08 04:45:05;;;;;;;6.72;4.53;;;;;;;21.36;54.85;100892.16;5077546;28;20048;-57
2022/06/08 04:47:32;;;;;;;10.52;5.22;;;;;;;21.37;54.65;100893.84;5077741;28;20045;-56
2022/06/08 04:49:58;;;;;;;10.18;5.43;;;;;;;21.37;55.02;100889.28;5078628;28;20047;-57
2022/06/08 04:52:25;;;;;;;11.52;5.20;;;;;;;21.38;54.81;100888.25;5077731;28;20084;-57
2022/06/08 04:54:51;;;;;;;7.15;4.30;;;;;;;21.37;54.72;100891.97;5077128;28;20161;-57
2022/06/08 04:57:18;;;;;;;9.52;5.35;;;;;;;21.39;54.66;100892.66;5081069;28;20044;-56
2022/06/08 04:59:44;;;;;;;18.92;5.57;;;;;;;21.39;54.79;100889.97;5078195;28;20457;-57
2022/06/08 05:02:11;;;;;;;10.18;5.50;;;;;;;21.39;54.37;100887.28;5075630;28;20372;-57
2022/06/08 05:04:38;;;;;;;11.00;5.05;;;;;;;21.41;54.52;100879.00;5076713;28;20101;-57
2022/06/08 05:07:04;;;;;;;8.93;4.68;;;;;;;21.41;54.28;100885.22;5079593;28;20625;-56
2022/06/08 05:09:31;;;;;;;10.85;4.80;;;;;;;21.39;54.24;100884.56;5076915;28;20074;-57
2022/06/08 05:11:57;;;;;;;8.35;5.00;;;;;;;21.41;54.46;100887.09;5081999;28;20503;-57
2022/06/08 05:14:24;;;;;;;6.80;4.45;;;;;;;21.42;54.42;100880.66;5078541;28;20316;-56
2022/06/08 05:16:50;;;;;;;11.27;5.22;;;;;;;21.42;54.22;100872.59;5081742;28;20127;-57
2022/06/08 05:19:17;;;;;;;6.75;4.25;;;;;;;21.41;54.28;100873.59;5077891;28;20058;-56
2022/06/08 05:21:43;;;;;;;10.10;4.65;;;;;;;21.41;54.29;100862.81;5075261;28;20055;-56
2022/06/08 05:24:10;;;;;;;13.52;4.78;;;;;;;21.42;54.40;100867.19;5077961;28;20032;-56
2022/06/08 05:26:36;;;;;;;8.55;5.13;;;;;;;21.42;54.21;100864.50;5076030;28;20060;-57
2022/06/08 05:29:03;;;;;;;7.35;4.30;;;;;;;21.42;54.28;100864.50;5080659;28;20041;-57
2022/06/08 05:31:30;;;;;;;8.77;5.18;;;;;;;21.43;54.27;100856.25;5079420;28;20094;-57
2022/06/08 05:33:57;;;;;;;8.75;4.97;;;;;;;21.43;54.48;100850.84;5079545;28;20041;-57
2022/06/08 05:36:24;;;;;;;12.13;5.00;;;;;;;21.43;54.12;100850.84;5082917;28;20089;-57
2022/06/08 05:38:50;;;;;;;6.95;4.53;;;;;;;21.43;54.67;100845.47;5087324;28;20126;-56
2022/06/08 05:41:17;;;;;;;8.52;4.50;;;;;;;21.45;54.30;100845.28;5084804;28;20040;-56
2022/06/08 05:43:43;;;;;;;9.68;5.38;;;;;;;21.43;54.19;100836.53;5081688;28;20044;-57
2022/06/08 05:46:11;;;;;;;8.25;5.20;;;;;;;21.44;54.31;100852.53;5084996;28;20090;-56
2022/06/08 05:48:37;;;;;;;9.88;4.80;;;;;;;21.46;54.25;100846.09;5076458;28;20052;-56
2022/06/08 05:51:04;;;;;;;8.13;4.90;;;;;;;21.46;54.08;100835.31;5076796;28;20052;-56
2022/06/08 05:53:30;;;;;;;9.80;4.95;;;;;;;21.46;54.36;100838.03;5077086;28;20061;-56
2022/06/08 05:55:57;;;;;;;7.72;4.55;;;;;;;21.46;54.28;100832.63;5077863;28;20053;-56
2022/06/08 05:58:23;;;;;;;10.63;5.40;;;;;;;21.46;54.25;100828.06;5080224;28;20045;-56
2022/06/08 06:00:50;;;;;;;8.48;4.20;;;;;;;21.47;54.17;100831.59;5081718;28;20058;-56
2022/06/08 06:03:18;;;;;;;7.65;4.70;;;;;;;21.47;54.00;100827.06;5080079;28;20500;-56
2022/06/08 06:05:45;;;;;;;7.45;4.47;;;;;;;21.47;54.30;100819.00;5081853;28;20058;-56
2022/06/08 06:08:13;;;;;;;6.07;4.22;;;;;;;21.48;54.30;100822.53;5077677;28;20127;-56
2022/06/08 06:10:43;;;;;;;7.45;4.25;;;;;;;21.48;54.18;100817.13;5080131;28;20048;-56
2022/06/08 06:13:10;;;;;;;7.85;4.63;;;;;;;21.49;54.22;100818.78;5080324;28;20040;-56
2022/06/08 06:15:37;;;;;;;9.25;4.43;;;;;;;21.48;54.13;100815.25;5081034;28;20042;-57
2022/06/08 06:18:05;;;;;;;8.57;4.03;;;;;;;21.49;54.03;100814.25;5078917;28;20048;-57
2022/06/08 06:20:32;;;;;;;8.30;4.47;;;;;;;21.50;54.09;100809.69;5077728;28;20351;-56
2022/06/08 06:22:59;;;;;;;7.85;4.50;;;;;;;21.49;53.97;100808.84;5075272;28;20304;-57
2022/06/08 06:25:26;;;;;;;7.07;4.30;;;;;;;21.51;54.05;100803.25;5079359;28;20040;-56
2022/06/08 06:27:53;;;;;;;6.75;4.18;;;;;;;21.50;54.04;100797.03;5079139;28;20047;-56
2022/06/08 06:30:20;;;;;;;7.20;4.10;;;;;;;21.53;54.18;100799.38;5075857;28;20159;-56
2022/06/08 06:32:47;;;;;;;6.95;4.22;;;;;;;21.54;54.04;100786.72;5076547;28;20044;-56
2022/06/08 06:35:29;;;;;;;8.15;4.50;;;;;;;21.56;54.38;100788.25;5077178;28;20046;-56
2022/06/08 06:38:02;;;;;;;8.13;4.35;;;;;;;21.57;54.27;100787.22;5081321;28;20366;-56
2022/06/08 06:40:28;;;;;;;6.70;3.92;;;;;;;21.58;53.95;100788.88;5080807;28;20299;-57
2022/06/08 06:42:55;;;;;;;9.18;4.43;;;;;;;21.59;53.96;100790.59;5076938;28;20357;-57
2022/06/08 06:45:22;;;;;;;7.65;4.10;;;;;;;21.60;53.83;100786.88;5077674;28;20051;-56
2022/06/08 06:47:49;;;;;;;9.13;4.25;;;;;;;21.61;54.02;100793.94;5079098;28;20040;-57
2022/06/08 06:50:16;;;;;;;6.30;3.65;;;;;;;21.62;53.77;100790.22;5077366;28;20046;-57
2022/06/08 06:52:46;;;;;;;7.18;3.50;;;;;;;21.62;53.77;100787.50;5077658;28;20052;-57
2022/06/08 06:55:25;;;;;;;6.28;3.72;;;;;;;21.62;53.92;100790.22;5076218;28;20040;-56
2022/06/08 06:57:54;;;;;;;6.15;3.47;;;;;;;21.65;53.85;100789.88;5076543;28;20059;-56
2022/06/08 07:00:20;;;;;;;4.90;3.83;;;;;;;21.65;54.06;100791.72;5078335;28;20040;-57
2022/06/08 07:02:47;;;;;;;6.43;3.60;;;;;;;21.66;53.64;100796.94;5076620;28;20064;-56
2022/06/08 07:05:18;;;;;;;8.95;3.85;;;;;;;21.66;53.61;100788.84;5077952;28;20094;-57
2022/06/08 07:07:45;;;;;;;5.28;3.83;;;;;;;21.66;53.47;100788.84;5074483;28;20159;-57
2022/06/08 07:10:11;;;;;;;6.22;4.25;;;;;;;21.67;53.72;100787.84;5077222;28;20059;-56
2022/06/08 07:12:38;;;;;;;6.43;3.83;;;;;;;21.67;53.69;100785.13;5080187;28;20043;-57
2022/06/08 07:15:05;;;;;;;6.72;4.32;;;;;;;21.67;53.52;100777.06;5079246;28;20054;-56
2022/06/08 07:17:37;;;;;;;5.05;3.80;;;;;;;21.68;53.42;100773.31;5076602;28;20041;-56
2022/06/08 07:20:04;;;;;;;6.22;4.07;;;;;;;21.68;53.77;100770.63;5076107;28;20048;-56
2022/06/08 07:22:31;;;;;;;7.45;4.25;;;;;;;21.69;53.66;100769.59;5076973;28;20047;-57
2022/06/08 07:24:57;;;;;;;5.35;3.58;;;;;;;21.70;53.59;100767.75;5079919;28;20143;-57
2022/06/08 07:27:24;;;;;;;4.57;3.60;;;;;;;21.71;53.77;100769.44;5074915;28;20457;-57
2022/06/08 07:29:51;;;;;;;5.53;4.00;;;;;;;21.71;53.56;100760.47;5079155;28;20473;-58
2022/06/08 07:32:23;;;;;;;4.50;3.38;;;;;;;21.72;53.55;100754.09;5076677;28;20051;-57
2022/06/08 07:34:49;;;;;;;6.45;4.10;;;;;;;21.73;53.72;100756.59;5079878;28;20036;-57
2022/06/08 07:37:16;;;;;;;4.68;3.70;;;;;;;21.73;53.53;100759.28;5074404;28;20404;-56
2022/06/08 07:39:42;;;;;;;6.05;3.72;;;;;;;21.75;53.54;100756.41;5074706;28;20049;-56
2022/06/08 07:42:09;;;;;;;4.30;3.10;;;;;;;21.75;53.42;100756.41;5078028;28;20127;-57
2022/06/08 07:44:35;;;;;;;5.38;3.63;;;;;;;21.76;53.37;100758.94;5075117;28;20037;-56
2022/06/08 07:47:02;;;;;;;5.55;4.10;;;;;;;21.76;53.58;100756.25;5075612;28;20301;-56
2022/06/08 07:49:39;;;;;;;6.18;3.53;;;;;;;21.76;53.66;100750.00;5077601;28;20335;-57
2022/06/08 07:52:13;;;;;;;6.13;3.50;;;;;;;21.77;53.73;100748.97;5077125;28;20044;-56
2022/06/08 07:54:41;;;;;;;5.95;3.55;;;;;;;21.78;53.36;100750.66;5076179;28;20355;-56
2022/06/08 07:57:13;;;;;;;5.75;3.60;;;;;;;21.79;53.68;100750.50;5075899;28;20048;-57
2022/06/08 07:59:39;;;;;;;4.50;3.17;;;;;;;21.79;53.64;100744.22;5078078;28;20134;-57
2022/06/08 08:02:07;;;;;;;5.32;3.55;;;;;;;21.79;53.64;100745.09;5078318;28;20071;-56
2022/06/08 08:04:35;;;;;;;6.07;3.55;;;;;;;21.80;53.44;100737.84;5073936;28;20040;-57
2022/06/08 08:07:02;;;;;;;5.55;3.50;;;;;;;21.80;53.60;100732.44;5076093;28;20468;-56
2022/06/08 08:09:31;;;;;;;5.53;3.63;;;;;;;21.81;53.39;100740.34;5073325;28;20048;-57
2022/06/08 08:11:58;;;;;;;5.25;3.70;;;;;;;21.82;53.81;100741.19;5075020;28;20045;-57
2022/06/08 08:14:24;;;;;;;5.47;3.47;;;;;;;21.82;53.51;100741.19;5076524;28;20028;-56
2022/06/08 08:16:51;;;;;;;5.00;3.38;;;;;;;21.82;53.67;100742.00;5075167;28;20132;-57
2022/06/08 08:19:20;;;;;;;4.65;3.50;;;;;;;21.83;53.54;100741.00;5078106;28;20095;-57
2022/06/08 08:21:47;;;;;;;4.68;3.47;;;;;;;21.83;53.63;100743.72;5076662;28;20052;-57
2022/06/08 08:24:14;;;;;;;4.70;2.90;;;;;;;21.85;53.50;100740.81;5075353;28;20046;-56
2022/06/08 08:26:43;;;;;;;5.68;3.35;;;;;;;21.85;53.20;100743.53;5076560;28;20403;-57
2022/06/08 08:29:10;;;;;;;3.92;2.83;;;;;;;21.86;53.28;100735.22;5075896;28;20142;-57
2022/06/08 08:31:37;;;;;;;4.18;2.60;;;;;;;21.86;53.36;100735.22;5075442;28;20143;-57
2022/06/08 08:34:04;;;;;;;4.55;3.20;;;;;;;21.89;53.49;100734.03;5077280;28;20315;-57
2022/06/08 08:36:31;;;;;;;5.10;2.72;;;;;;;21.90;53.33;100741.09;5077373;28;20108;-57
2022/06/08 08:38:58;;;;;;;4.90;2.97;;;;;;;21.91;53.19;100740.13;5076138;28;20040;-56
2022/06/08 08:44:43;;;;;;;3.88;3.00;;;;;;;21.91;53.22;100727.44;5077599;28;20032;-57
2022/06/08 08:47:31;;;;;;;4.10;2.90;;;;;;;21.93;53.19;100732.66;5047886;28;20072;-58
2022/06/08 08:50:20;;;;;;;4.57;2.80;;;;;;;21.92;53.18;100734.53;5076107;28;20045;-57
2022/06/08 08:53:02;;;;;;;5.38;2.90;;;;;;;21.93;53.14;100733.50;5079944;28;20224;-57
2022/06/08 08:55:49;;;;;;;5.82;2.83;;;;;;;21.93;53.44;100729.97;5071015;28;20404;-57
2022/06/08 08:58:24;;;;;;;5.22;3.20;;;;;;;21.94;53.36;100734.31;5074258;28;20045;-57
2022/06/08 09:01:00;;;;;;;6.15;3.08;;;;;;;21.93;53.18;100730.78;5076966;28;20058;-57
2022/06/08 09:03:34;;;;;;;3.17;2.30;;;;;;;21.96;53.05;100729.59;5075158;28;20048;-56
2022/06/08 09:06:12;;;;;;;3.72;2.83;;;;;;;21.96;53.24;100735.00;5074234;28;20056;-57
2022/06/08 09:08:40;;;;;;;7.03;3.42;;;;;;;21.97;53.14;100739.38;5076211;28;20049;-57
2022/06/08 09:11:17;;;;;;;4.07;2.80;;;;;;;21.97;53.44;100728.56;5076831;28;20067;-58
2022/06/08 09:13:54;;;;;;;5.00;3.00;;;;;;;21.98;53.29;100730.25;5079346;28;20131;-57
2022/06/08 09:16:27;;;;;;;4.15;3.05;;;;;;;21.99;53.12;100725.69;5080285;28;20072;-57
2022/06/08 09:18:54;;;;;;;4.75;2.83;;;;;;;22.01;53.25;100723.66;5080973;28;20048;-57
2022/06/08 09:21:35;;;;;;;4.60;2.97;;;;;;;22.02;52.97;100722.63;5079859;28;20044;-56
2022/06/08 09:24:21;;;;;;;4.07;2.80;;;;;;;22.02;53.02;100730.72;5076721;28;20033;-56
2022/06/08 09:26:55;;;;;;;4.82;2.90;;;;;;;22.04;53.45;100728.69;5077414;28;20044;-57
2022/06/08 09:29:29;;;;;;;3.15;2.60;;;;;;;22.04;53.48;100724.13;5077462;28;20044;-57
2022/06/08 09:31:56;;;;;;;6.25;2.67;;;;;;;22.05;53.33;100733.06;5080255;28;20754;-57
2022/06/08 09:34:24;;;;;;;3.08;2.63;;;;;;;22.05;53.12;100725.78;5080682;28;20411;-57
2022/06/08 09:37:03;;;;;;;3.53;2.47;;;;;;;22.06;52.86;100732.03;5078431;28;20109;-58
2022/06/08 09:39:30;;;;;;;3.85;2.53;;;;;;;22.07;53.05;100731.88;5082001;28;20155;-57
2022/06/08 09:41:59;;;;;;;4.20;3.08;;;;;;;22.06;53.11;100727.47;5078056;28;20143;-57
2022/06/08 09:44:28;;;;;;;6.28;3.15;;;;;;;22.06;53.08;100730.16;5077834;28;20036;-57
2022/06/08 09:53:32;;;;;;;7.80;3.45;;;;;;;22.08;52.89;100724.59;5070402;28;20058;-57
2022/06/08 09:56:24;;;;;;;5.93;4.10;;;;;;;22.09;52.88;100732.50;5079705;28;20123;-57
2022/06/08 09:59:28;;;;;;;3.60;3.03;;;;;;;22.09;53.13;100732.50;5083092;28;20054;-57
2022/06/08 10:02:16;;;;;;;6.72;3.92;;;;;;;22.10;53.05;100725.25;5079741;28;20044;-57
2022/06/08 10:05:12;;;;;;;6.95;4.45;;;;;;;22.10;52.99;100734.19;5076620;28;20059;-57
2022/06/08 10:08:22;;;;;;;5.53;3.95;;;;;;;22.10;53.00;100736.88;5078706;28;20132;-57
2022/06/08 10:11:34;;;;;;;5.53;4.20;;;;;;;22.10;52.68;100734.19;5079933;28;20067;-57
2022/06/08 10:13:58;;;;;;;6.20;4.30;;;;;;;22.10;52.65;100734.19;5076842;28;20051;-57
2022/06/08 10:16:29;;;;;;;5.10;3.90;;;;;;;22.12;52.74;100742.13;5076961;28;20040;-56
2022/06/08 10:19:01;;;;;;;6.85;4.03;;;;;;;22.11;52.69;100740.41;5078825;28;20044;-57
2022/06/08 10:21:33;;;;;;;5.28;3.25;;;;;;;22.11;52.44;100741.28;5078050;28;20051;-56
2022/06/08 10:24:02;;;;;;;4.70;3.47;;;;;;;22.11;52.74;100737.72;5076869;28;20042;-57
2022/06/08 10:26:44;;;;;;;4.82;2.92;;;;;;;22.11;52.54;100743.09;5076921;28;20040;-57
2022/06/08 10:29:19;;;;;;;4.63;2.55;;;;;;;22.12;52.78;100739.41;5078466;28;20139;-57
2022/06/08 10:32:04;;;;;;;5.05;2.65;;;;;;;22.11;52.37;100746.69;5077948;28;20048;-57
2022/06/08 10:34:33;;;;;;;4.70;2.28;;;;;;;22.11;52.55;100743.97;5077272;28;20123;-56
2022/06/08 10:37:39;;;;;;;4.93;2.65;;;;;;;22.10;52.46;100744.97;5074479;28;20119;-56
2022/06/08 10:40:16;;;;;;;4.20;2.28;;;;;;;22.12;52.21;100742.13;5037999;28;20044;-57
2022/06/08 10:42:44;;;;;;;7.13;2.40;;;;;;;22.12;52.10;100747.50;5078483;28;20087;-56
2022/06/08 10:45:19;;;;;;;4.45;2.40;;;;;;;22.11;52.10;100748.50;5081087;28;20098;-57
2022/06/08 10:48:15;;;;;;;5.13;1.92;;;;;;;22.10;52.56;100755.78;5080526;28;20127;-57
2022/06/08 10:50:48;;;;;;;5.07;2.00;;;;;;;22.11;52.47;100751.22;5078143;28;20041;-57
2022/06/08 10:56:24;;;;;;;5.72;2.30;;;;;;;22.10;52.45;100752.25;5079495;28;20040;-57
2022/06/08 10:59:13;;;;;;;5.38;2.33;;;;;;;22.09;52.51;100759.50;5078476;28;20048;-58
2022/06/08 11:02:18;;;;;;;6.38;2.78;;;;;;;22.07;52.54;100756.16;5077162;28;20055;-57
2022/06/08 11:05:08;;;;;;;2.92;1.88;;;;;;;22.07;52.92;100755.28;5080253;28;20047;-57
2022/06/08 11:07:59;;;;;;;3.80;2.30;;;;;;;22.06;52.93;100759.03;5072442;28;20128;-57
2022/06/08 11:10:44;;;;;;;4.80;2.60;;;;;;;22.06;52.98;100756.31;5076664;28;20044;-57
2022/06/08 11:13:25;;;;;;;3.20;2.08;;;;;;;22.06;53.02;100756.31;5077492;28;20120;-58
2022/06/08 11:16:09;;;;;;;3.28;2.03;;;;;;;22.06;52.98;100759.03;5076836;28;20289;-57
2022/06/08 11:18:46;;;;;;;4.30;2.50;;;;;;;22.05;53.33;100755.50;5075275;28;20594;-58
2022/06/08 11:21:13;;;;;;;4.82;2.13;;;;;;;22.06;52.98;100757.16;5077934;28;20131;-58
2022/06/08 11:23:46;;;;;;;4.03;2.33;;;;;;;22.05;52.95;100755.50;5075856;28;20122;-57
2022/06/08 11:26:19;;;;;;;3.50;1.98;;;;;;;22.05;53.27;100758.19;5077850;28;20051;-57
2022/06/08 11:28:50;;;;;;;2.50;1.88;;;;;;;22.06;53.30;100748.22;5076494;28;20132;-57
2022/06/08 11:31:29;;;;;;;7.10;2.38;;;;;;;22.04;53.50;100748.41;5078636;28;20094;-57
2022/06/08 11:34:20;;;;;;;6.07;2.13;;;;;;;22.03;53.04;100754.84;5083035;28;20486;-57
2022/06/08 11:36:50;;;;;;;7.70;3.30;;;;;;;22.03;53.43;100749.44;5081729;28;20067;-58
2022/06/08 11:39:37;;;;;;;12.98;3.70;;;;;;;22.02;53.41;100739.66;5077618;28;20422;-58
2022/06/08 11:42:30;;;;;;;22.55;5.72;;;;;;;22.03;53.71;100738.66;5075672;28;20342;-57
2022/06/08 11:45:13;;;;;;;21.00;5.45;;;;;;;22.03;53.74;100737.78;5077283;28;20044;-58
2022/06/08 11:47:48;;;;;;;25.00;5.53;;;;;;;22.03;53.76;100732.38;5077573;28;20044;-58
2022/06/08 11:50:21;;;;;;;20.40;5.65;;;;;;;22.02;53.79;100733.41;5078272;28;20052;-58
2022/06/08 11:52:58;;;;;;;22.15;5.65;;;;;;;22.01;54.07;100729.88;5078410;28;20043;-58
2022/06/08 11:55:30;;;;;;;21.05;5.70;;;;;;;22.01;53.99;100726.34;5076791;28;20040;-58
2022/06/08 11:58:16;;;;;;;13.15;5.18;;;;;;;22.00;53.57;100727.38;5076249;28;20131;-58
2022/06/08 12:00:57;;;;;;;21.48;5.88;;;;;;;21.99;53.67;100722.97;5077005;28;20048;-58
2022/06/08 12:03:34;;;;;;;14.70;5.28;;;;;;;22.00;53.64;100719.28;5078428;28;20044;-58
2022/06/08 12:06:07;;;;;;;18.50;4.72;;;;;;;21.99;53.66;100720.28;5077834;28;20049;-57